sensor_id;sensor_type;location;lat;lon;timestamp;P1;durP1;ratioP1;P2;durP2;ratioP2
15194;SDS011;7698;42.478;23.756;2023-06-14T00:01:46;16.63;;;15.00;;
15194;SDS011;7698;42.478;23.756;2023-06-14T00:04:13;13.63;;;12.32;;
15194;SDS011;7698;42.478;23.756;2023-06-14T00:06:42;13.90;;;12.52;;
15194;SDS011;7698;42.478;23.756;2023-06-14T00:09:10;11.02;;;9.88;;
15194;SDS011;7698;42.478;23.756;2023-06-14T00:11:39;10.75;;;9.65;;
15194;SDS011;7698;42.478;23.756;2023-06-14T00:14:06;12.45;;;11.30;;
15194;SDS011;7698;42.478;23.756;2023-06-14T00:16:33;13.35;;;12.13;;
15194;SDS011;7698;42.478;23.756;2023-06-14T00:19:00;15.88;;;14.38;;
15194;SDS011;7698;42.478;23.756;2023-06-14T00:21:28;15.13;;;13.75;;
15194;SDS011;7698;42.478;23.756;2023-06-14T00:23:55;19.88;;;18.17;;
15194;SDS011;7698;42.478;23.756;2023-06-14T00:26:22;18.70;;;17.17;;
15194;SDS011;7698;42.478;23.756;2023-06-14T00:28:52;18.80;;;17.25;;
15194;SDS011;7698;42.478;23.756;2023-06-14T00:31:19;17.83;;;16.23;;
15194;SDS011;7698;42.478;23.756;2023-06-14T00:33:45;15.35;;;14.00;;
15194;SDS011;7698;42.478;23.756;2023-06-14T00:36:12;18.40;;;16.75;;
15194;SDS011;7698;42.478;23.756;2023-06-14T00:38:39;16.95;;;15.32;;
15194;SDS011;7698;42.478;23.756;2023-06-14T00:41:06;16.17;;;14.75;;
15194;SDS011;7698;42.478;23.756;2023-06-14T00:43:33;16.08;;;14.57;;
15194;SDS011;7698;42.478;23.756;2023-06-14T00:46:01;17.35;;;15.40;;
15194;SDS011;7698;42.478;23.756;2023-06-14T00:48:28;14.40;;;13.20;;
15194;SDS011;7698;42.478;23.756;2023-06-14T00:50:55;13.48;;;12.15;;
15194;SDS011;7698;42.478;23.756;2023-06-14T00:53:23;12.63;;;11.55;;
15194;SDS011;7698;42.478;23.756;2023-06-14T00:55:50;14.07;;;12.80;;
15194;SDS011;7698;42.478;23.756;2023-06-14T00:58:17;9.63;;;8.82;;
15194;SDS011;7698;42.478;23.756;2023-06-14T01:00:44;11.95;;;10.95;;
15194;SDS011;7698;42.478;23.756;2023-06-14T01:03:12;15.23;;;13.88;;
15194;SDS011;7698;42.478;23.756;2023-06-14T01:05:44;14.45;;;13.18;;
15194;SDS011;7698;42.478;23.756;2023-06-14T01:08:14;13.13;;;11.85;;
15194;SDS011;7698;42.478;23.756;2023-06-14T01:10:52;13.48;;;12.27;;
15194;SDS011;7698;42.478;23.756;2023-06-14T01:13:24;16.15;;;14.55;;
15194;SDS011;7698;42.478;23.756;2023-06-14T01:15:58;14.52;;;13.32;;
15194;SDS011;7698;42.478;23.756;2023-06-14T01:18:28;15.50;;;14.13;;
15194;SDS011;7698;42.478;23.756;2023-06-14T01:20:56;16.55;;;15.02;;
15194;SDS011;7698;42.478;23.756;2023-06-14T01:23:24;16.60;;;15.20;;
15194;SDS011;7698;42.478;23.756;2023-06-14T01:25:57;15.80;;;14.50;;
15194;SDS011;7698;42.478;23.756;2023-06-14T01:28:25;16.88;;;15.40;;
15194;SDS011;7698;42.478;23.756;2023-06-14T01:30:57;16.95;;;15.60;;
15194;SDS011;7698;42.478;23.756;2023-06-14T01:33:29;15.40;;;14.00;;
15194;SDS011;7698;42.478;23.756;2023-06-14T01:35:57;13.70;;;12.50;;
15194;SDS011;7698;42.478;23.756;2023-06-14T01:38:26;13.55;;;12.45;;
15194;SDS011;7698;42.478;23.756;2023-06-14T01:40:54;9.60;;;8.82;;
15194;SDS011;7698;42.478;23.756;2023-06-14T01:43:22;9.23;;;8.40;;
15194;SDS011;7698;42.478;23.756;2023-06-14T01:45:51;9.85;;;9.05;;
15194;SDS011;7698;42.478;23.756;2023-06-14T01:48:21;12.23;;;11.15;;
15194;SDS011;7698;42.478;23.756;2023-06-14T01:50:47;15.10;;;13.75;;
15194;SDS011;7698;42.478;23.756;2023-06-14T01:53:15;17.38;;;15.75;;
15194;SDS011;7698;42.478;23.756;2023-06-14T01:55:43;16.48;;;14.85;;
15194;SDS011;7698;42.478;23.756;2023-06-14T01:58:13;17.77;;;16.05;;
15194;SDS011;7698;42.478;23.756;2023-06-14T02:00:41;12.57;;;11.35;;
15194;SDS011;7698;42.478;23.756;2023-06-14T02:03:09;13.85;;;12.43;;
15194;SDS011;7698;42.478;23.756;2023-06-14T02:05:36;12.50;;;11.45;;
15194;SDS011;7698;42.478;23.756;2023-06-14T02:08:04;13.18;;;11.98;;
15194;SDS011;7698;42.478;23.756;2023-06-14T02:10:31;12.27;;;11.23;;
15194;SDS011;7698;42.478;23.756;2023-06-14T02:12:59;11.70;;;10.55;;
15194;SDS011;7698;42.478;23.756;2023-06-14T02:15:26;11.93;;;10.95;;
15194;SDS011;7698;42.478;23.756;2023-06-14T02:17:59;11.57;;;10.55;;
15194;SDS011;7698;42.478;23.756;2023-06-14T02:20:26;9.13;;;8.43;;
15194;SDS011;7698;42.478;23.756;2023-06-14T02:22:53;9.18;;;8.38;;
15194;SDS011;7698;42.478;23.756;2023-06-14T02:25:20;8.55;;;7.85;;
15194;SDS011;7698;42.478;23.756;2023-06-14T02:27:47;11.05;;;10.05;;
15194;SDS011;7698;42.478;23.756;2023-06-14T02:30:15;10.70;;;9.80;;
15194;SDS011;7698;42.478;23.756;2023-06-14T02:32:45;12.65;;;11.20;;
15194;SDS011;7698;42.478;23.756;2023-06-14T02:35:13;10.30;;;9.20;;
15194;SDS011;7698;42.478;23.756;2023-06-14T02:37:40;10.32;;;9.38;;
15194;SDS011;7698;42.478;23.756;2023-06-14T02:40:08;12.18;;;11.10;;
15194;SDS011;7698;42.478;23.756;2023-06-14T02:42:35;14.23;;;13.02;;
15194;SDS011;7698;42.478;23.756;2023-06-14T02:45:02;16.00;;;14.55;;
15194;SDS011;7698;42.478;23.756;2023-06-14T02:47:31;13.45;;;12.35;;
15194;SDS011;7698;42.478;23.756;2023-06-14T02:49:57;13.23;;;11.98;;
15194;SDS011;7698;42.478;23.756;2023-06-14T02:52:24;8.07;;;7.43;;
15194;SDS011;7698;42.478;23.756;2023-06-14T02:54:51;9.50;;;8.70;;
15194;SDS011;7698;42.478;23.756;2023-06-14T02:57:19;12.48;;;11.32;;
15194;SDS011;7698;42.478;23.756;2023-06-14T02:59:46;13.55;;;12.20;;
15194;SDS011;7698;42.478;23.756;2023-06-14T03:02:13;14.63;;;13.30;;
15194;SDS011;7698;42.478;23.756;2023-06-14T03:04:41;18.75;;;17.23;;
15194;SDS011;7698;42.478;23.756;2023-06-14T03:07:09;18.92;;;17.48;;
15194;SDS011;7698;42.478;23.756;2023-06-14T03:09:37;18.50;;;17.02;;
15194;SDS011;7698;42.478;23.756;2023-06-14T03:12:05;21.02;;;19.30;;
15194;SDS011;7698;42.478;23.756;2023-06-14T03:14:34;21.35;;;19.67;;
15194;SDS011;7698;42.478;23.756;2023-06-14T03:17:01;21.05;;;19.35;;
15194;SDS011;7698;42.478;23.756;2023-06-14T03:19:29;22.00;;;20.08;;
15194;SDS011;7698;42.478;23.756;2023-06-14T03:21:58;19.05;;;17.63;;
15194;SDS011;7698;42.478;23.756;2023-06-14T03:24:25;21.70;;;20.10;;
15194;SDS011;7698;42.478;23.756;2023-06-14T03:26:53;22.15;;;20.38;;
15194;SDS011;7698;42.478;23.756;2023-06-14T03:29:21;21.48;;;19.73;;
15194;SDS011;7698;42.478;23.756;2023-06-14T03:31:58;20.50;;;18.90;;
15194;SDS011;7698;42.478;23.756;2023-06-14T03:34:26;21.55;;;19.90;;
15194;SDS011;7698;42.478;23.756;2023-06-14T03:36:53;18.40;;;16.98;;
15194;SDS011;7698;42.478;23.756;2023-06-14T03:39:22;18.48;;;17.10;;
15194;SDS011;7698;42.478;23.756;2023-06-14T03:41:49;18.77;;;17.38;;
15194;SDS011;7698;42.478;23.756;2023-06-14T03:44:16;16.25;;;15.05;;
15194;SDS011;7698;42.478;23.756;2023-06-14T03:46:44;18.20;;;16.65;;
15194;SDS011;7698;42.478;23.756;2023-06-14T03:49:11;19.08;;;17.50;;
15194;SDS011;7698;42.478;23.756;2023-06-14T03:51:39;16.98;;;15.65;;
15194;SDS011;7698;42.478;23.756;2023-06-14T03:54:06;18.30;;;16.77;;
15194;SDS011;7698;42.478;23.756;2023-06-14T03:56:34;17.88;;;16.48;;
15194;SDS011;7698;42.478;23.756;2023-06-14T03:59:01;18.83;;;17.40;;
15194;SDS011;7698;42.478;23.756;2023-06-14T04:01:28;18.08;;;16.75;;
15194;SDS011;7698;42.478;23.756;2023-06-14T04:03:56;17.38;;;15.90;;
15194;SDS011;7698;42.478;23.756;2023-06-14T04:06:24;15.45;;;14.35;;
15194;SDS011;7698;42.478;23.756;2023-06-14T04:08:57;16.50;;;15.13;;
15194;SDS011;7698;42.478;23.756;2023-06-14T04:11:27;15.13;;;13.90;;
15194;SDS011;7698;42.478;23.756;2023-06-14T04:13:55;16.85;;;15.55;;
15194;SDS011;7698;42.478;23.756;2023-06-14T04:16:22;18.70;;;17.13;;
15194;SDS011;7698;42.478;23.756;2023-06-14T04:18:49;17.90;;;16.52;;
15194;SDS011;7698;42.478;23.756;2023-06-14T04:21:17;20.33;;;18.67;;
15194;SDS011;7698;42.478;23.756;2023-06-14T04:23:45;17.08;;;15.63;;
15194;SDS011;7698;42.478;23.756;2023-06-14T04:26:12;18.48;;;17.05;;
15194;SDS011;7698;42.478;23.756;2023-06-14T04:28:39;21.40;;;19.67;;
15194;SDS011;7698;42.478;23.756;2023-06-14T04:31:08;20.00;;;18.42;;
15194;SDS011;7698;42.478;23.756;2023-06-14T04:33:36;21.85;;;19.27;;
15194;SDS011;7698;42.478;23.756;2023-06-14T04:36:09;17.13;;;15.73;;
15194;SDS011;7698;42.478;23.756;2023-06-14T04:38:37;17.08;;;15.68;;
15194;SDS011;7698;42.478;23.756;2023-06-14T04:41:04;12.00;;;11.13;;
15194;SDS011;7698;42.478;23.756;2023-06-14T04:43:31;14.18;;;13.07;;
15194;SDS011;7698;42.478;23.756;2023-06-14T04:46:03;15.88;;;14.60;;
15194;SDS011;7698;42.478;23.756;2023-06-14T04:48:36;15.75;;;14.48;;
15194;SDS011;7698;42.478;23.756;2023-06-14T04:51:04;14.35;;;13.13;;
15194;SDS011;7698;42.478;23.756;2023-06-14T04:53:32;12.95;;;11.95;;
15194;SDS011;7698;42.478;23.756;2023-06-14T04:55:59;14.18;;;12.80;;
15194;SDS011;7698;42.478;23.756;2023-06-14T04:58:26;9.57;;;8.88;;
15194;SDS011;7698;42.478;23.756;2023-06-14T05:00:53;10.45;;;9.65;;
15194;SDS011;7698;42.478;23.756;2023-06-14T05:03:21;13.00;;;11.85;;
15194;SDS011;7698;42.478;23.756;2023-06-14T05:05:50;10.65;;;9.75;;
15194;SDS011;7698;42.478;23.756;2023-06-14T05:08:18;12.63;;;11.57;;
15194;SDS011;7698;42.478;23.756;2023-06-14T05:10:45;11.18;;;10.27;;
15194;SDS011;7698;42.478;23.756;2023-06-14T05:13:11;10.45;;;9.65;;
15194;SDS011;7698;42.478;23.756;2023-06-14T05:15:38;10.23;;;9.50;;
15194;SDS011;7698;42.478;23.756;2023-06-14T05:18:05;9.90;;;9.20;;
15194;SDS011;7698;42.478;23.756;2023-06-14T05:20:34;8.88;;;8.23;;
15194;SDS011;7698;42.478;23.756;2023-06-14T05:23:03;9.02;;;8.32;;
15194;SDS011;7698;42.478;23.756;2023-06-14T05:25:30;9.10;;;8.40;;
15194;SDS011;7698;42.478;23.756;2023-06-14T05:27:57;8.68;;;7.97;;
15194;SDS011;7698;42.478;23.756;2023-06-14T05:30:23;9.20;;;8.50;;
15194;SDS011;7698;42.478;23.756;2023-06-14T05:32:51;8.77;;;8.13;;
15194;SDS011;7698;42.478;23.756;2023-06-14T05:35:18;8.43;;;7.78;;
15194;SDS011;7698;42.478;23.756;2023-06-14T05:37:47;7.60;;;6.90;;
15194;SDS011;7698;42.478;23.756;2023-06-14T05:40:15;7.45;;;6.85;;
15194;SDS011;7698;42.478;23.756;2023-06-14T05:42:43;7.78;;;7.13;;
15194;SDS011;7698;42.478;23.756;2023-06-14T05:45:09;9.30;;;8.60;;
15194;SDS011;7698;42.478;23.756;2023-06-14T05:47:36;8.63;;;7.93;;
15194;SDS011;7698;42.478;23.756;2023-06-14T05:50:03;9.93;;;9.02;;
15194;SDS011;7698;42.478;23.756;2023-06-14T05:52:31;9.73;;;8.93;;
15194;SDS011;7698;42.478;23.756;2023-06-14T05:54:58;10.90;;;9.98;;
15194;SDS011;7698;42.478;23.756;2023-06-14T05:57:27;9.60;;;8.90;;
15194;SDS011;7698;42.478;23.756;2023-06-14T05:59:54;9.60;;;8.88;;
15194;SDS011;7698;42.478;23.756;2023-06-14T06:02:20;10.55;;;9.75;;
15194;SDS011;7698;42.478;23.756;2023-06-14T06:04:47;9.07;;;8.35;;
15194;SDS011;7698;42.478;23.756;2023-06-14T06:07:14;10.23;;;9.43;;
15194;SDS011;7698;42.478;23.756;2023-06-14T06:09:41;9.43;;;8.73;;
15194;SDS011;7698;42.478;23.756;2023-06-14T06:12:08;10.00;;;9.10;;
15194;SDS011;7698;42.478;23.756;2023-06-14T06:14:36;7.72;;;7.10;;
15194;SDS011;7698;42.478;23.756;2023-06-14T06:17:04;10.05;;;9.25;;
15194;SDS011;7698;42.478;23.756;2023-06-14T06:19:31;9.80;;;9.10;;
15194;SDS011;7698;42.478;23.756;2023-06-14T06:21:58;8.82;;;8.13;;
15194;SDS011;7698;42.478;23.756;2023-06-14T06:24:25;9.38;;;8.68;;
15194;SDS011;7698;42.478;23.756;2023-06-14T06:26:52;9.15;;;8.45;;
15194;SDS011;7698;42.478;23.756;2023-06-14T06:29:19;8.77;;;8.02;;
15194;SDS011;7698;42.478;23.756;2023-06-14T06:31:48;8.18;;;7.57;;
15194;SDS011;7698;42.478;23.756;2023-06-14T06:34:14;7.28;;;6.78;;
15194;SDS011;7698;42.478;23.756;2023-06-14T06:36:41;6.80;;;6.30;;
15194;SDS011;7698;42.478;23.756;2023-06-14T06:39:08;6.53;;;6.03;;
15194;SDS011;7698;42.478;23.756;2023-06-14T06:41:37;4.60;;;4.20;;
15194;SDS011;7698;42.478;23.756;2023-06-14T06:44:05;2.92;;;2.72;;
15194;SDS011;7698;42.478;23.756;2023-06-14T06:46:32;3.30;;;3.00;;
15194;SDS011;7698;42.478;23.756;2023-06-14T06:49:01;3.80;;;3.50;;
15194;SDS011;7698;42.478;23.756;2023-06-14T06:51:28;3.58;;;3.28;;
15194;SDS011;7698;42.478;23.756;2023-06-14T06:53:55;3.65;;;3.35;;
15194;SDS011;7698;42.478;23.756;2023-06-14T06:56:22;3.55;;;3.35;;
15194;SDS011;7698;42.478;23.756;2023-06-14T06:58:49;3.60;;;3.40;;
15194;SDS011;7698;42.478;23.756;2023-06-14T07:01:17;3.53;;;3.33;;
15194;SDS011;7698;42.478;23.756;2023-06-14T07:03:45;4.15;;;3.85;;
15194;SDS011;7698;42.478;23.756;2023-06-14T07:06:13;3.25;;;2.95;;
15194;SDS011;7698;42.478;23.756;2023-06-14T07:08:43;3.42;;;3.22;;
15194;SDS011;7698;42.478;23.756;2023-06-14T07:11:11;3.78;;;3.58;;
15194;SDS011;7698;42.478;23.756;2023-06-14T07:13:38;3.80;;;3.30;;
15194;SDS011;7698;42.478;23.756;2023-06-14T07:16:05;4.35;;;4.05;;
15194;SDS011;7698;42.478;23.756;2023-06-14T07:18:32;4.03;;;3.72;;
15194;SDS011;7698;42.478;23.756;2023-06-14T07:21:01;4.28;;;3.97;;
15194;SDS011;7698;42.478;23.756;2023-06-14T07:23:30;4.10;;;3.83;;
15194;SDS011;7698;42.478;23.756;2023-06-14T07:25:57;4.38;;;4.07;;
15194;SDS011;7698;42.478;23.756;2023-06-14T07:28:24;4.45;;;4.15;;
15194;SDS011;7698;42.478;23.756;2023-06-14T07:30:51;4.28;;;4.00;;
15194;SDS011;7698;42.478;23.756;2023-06-14T07:33:19;4.20;;;3.90;;
15194;SDS011;7698;42.478;23.756;2023-06-14T07:35:45;3.88;;;3.58;;
15194;SDS011;7698;42.478;23.756;2023-06-14T07:38:13;5.65;;;5.00;;
15194;SDS011;7698;42.478;23.756;2023-06-14T07:40:41;4.40;;;4.07;;
15194;SDS011;7698;42.478;23.756;2023-06-14T07:43:08;5.68;;;4.85;;
15194;SDS011;7698;42.478;23.756;2023-06-14T07:45:36;5.25;;;4.85;;
15194;SDS011;7698;42.478;23.756;2023-06-14T07:48:04;4.38;;;4.07;;
15194;SDS011;7698;42.478;23.756;2023-06-14T07:50:32;4.80;;;4.47;;
15194;SDS011;7698;42.478;23.756;2023-06-14T07:52:59;4.88;;;4.57;;
15194;SDS011;7698;42.478;23.756;2023-06-14T07:55:26;4.72;;;4.43;;
15194;SDS011;7698;42.478;23.756;2023-06-14T07:57:55;5.60;;;5.20;;
15194;SDS011;7698;42.478;23.756;2023-06-14T08:00:22;5.25;;;4.85;;
15194;SDS011;7698;42.478;23.756;2023-06-14T08:02:49;5.75;;;5.35;;
15194;SDS011;7698;42.478;23.756;2023-06-14T08:05:17;6.70;;;6.20;;
15194;SDS011;7698;42.478;23.756;2023-06-14T08:07:44;6.70;;;6.10;;
15194;SDS011;7698;42.478;23.756;2023-06-14T08:10:11;5.78;;;5.38;;
15194;SDS011;7698;42.478;23.756;2023-06-14T08:12:37;6.40;;;5.90;;
15194;SDS011;7698;42.478;23.756;2023-06-14T08:15:06;7.25;;;6.65;;
15194;SDS011;7698;42.478;23.756;2023-06-14T08:17:34;7.53;;;6.93;;
15194;SDS011;7698;42.478;23.756;2023-06-14T08:20:01;7.57;;;6.97;;
15194;SDS011;7698;42.478;23.756;2023-06-14T08:22:29;7.55;;;6.95;;
15194;SDS011;7698;42.478;23.756;2023-06-14T08:24:59;8.20;;;7.55;;
15194;SDS011;7698;42.478;23.756;2023-06-14T08:27:26;7.70;;;7.20;;
15194;SDS011;7698;42.478;23.756;2023-06-14T08:29:53;7.07;;;6.57;;
15194;SDS011;7698;42.478;23.756;2023-06-14T08:32:21;6.68;;;6.10;;
15194;SDS011;7698;42.478;23.756;2023-06-14T08:34:48;6.78;;;6.28;;
15194;SDS011;7698;42.478;23.756;2023-06-14T08:37:15;6.95;;;6.45;;
15194;SDS011;7698;42.478;23.756;2023-06-14T08:39:42;7.10;;;6.50;;
15194;SDS011;7698;42.478;23.756;2023-06-14T08:42:10;7.00;;;6.40;;
15194;SDS011;7698;42.478;23.756;2023-06-14T08:44:38;6.32;;;5.90;;
15194;SDS011;7698;42.478;23.756;2023-06-14T08:47:05;6.97;;;6.47;;
15194;SDS011;7698;42.478;23.756;2023-06-14T08:49:34;6.38;;;5.85;;
15194;SDS011;7698;42.478;23.756;2023-06-14T08:52:05;6.78;;;6.32;;
15194;SDS011;7698;42.478;23.756;2023-06-14T08:54:35;6.03;;;5.63;;
15194;SDS011;7698;42.478;23.756;2023-06-14T08:57:08;6.45;;;6.03;;
15194;SDS011;7698;42.478;23.756;2023-06-14T08:59:37;7.50;;;6.90;;
15194;SDS011;7698;42.478;23.756;2023-06-14T09:02:12;6.15;;;5.65;;
15194;SDS011;7698;42.478;23.756;2023-06-14T09:04:41;6.80;;;6.30;;
15194;SDS011;7698;42.478;23.756;2023-06-14T09:07:09;6.57;;;6.07;;
15194;SDS011;7698;42.478;23.756;2023-06-14T09:09:38;6.90;;;6.40;;
15194;SDS011;7698;42.478;23.756;2023-06-14T09:12:06;5.07;;;4.72;;
15194;SDS011;7698;42.478;23.756;2023-06-14T09:14:36;6.43;;;5.93;;
15194;SDS011;7698;42.478;23.756;2023-06-14T09:17:05;6.88;;;6.38;;
15194;SDS011;7698;42.478;23.756;2023-06-14T09:19:33;6.57;;;5.95;;
15194;SDS011;7698;42.478;23.756;2023-06-14T09:22:02;6.75;;;6.18;;
15194;SDS011;7698;42.478;23.756;2023-06-14T09:24:30;6.63;;;6.13;;
15194;SDS011;7698;42.478;23.756;2023-06-14T09:26:57;6.93;;;6.20;;
15194;SDS011;7698;42.478;23.756;2023-06-14T09:29:23;6.78;;;6.28;;
15194;SDS011;7698;42.478;23.756;2023-06-14T09:31:51;6.82;;;6.18;;
15194;SDS011;7698;42.478;23.756;2023-06-14T09:34:18;5.85;;;5.45;;
15194;SDS011;7698;42.478;23.756;2023-06-14T09:36:48;5.97;;;5.40;;
15194;SDS011;7698;42.478;23.756;2023-06-14T09:39:17;5.75;;;5.35;;
15194;SDS011;7698;42.478;23.756;2023-06-14T09:41:44;6.40;;;5.90;;
15194;SDS011;7698;42.478;23.756;2023-06-14T09:44:11;5.50;;;5.10;;
15194;SDS011;7698;42.478;23.756;2023-06-14T09:46:38;6.20;;;5.70;;
15194;SDS011;7698;42.478;23.756;2023-06-14T09:49:05;6.40;;;5.90;;
15194;SDS011;7698;42.478;23.756;2023-06-14T09:51:33;5.90;;;5.40;;
15194;SDS011;7698;42.478;23.756;2023-06-14T09:54:08;5.78;;;5.38;;
15194;SDS011;7698;42.478;23.756;2023-06-14T09:56:44;5.55;;;5.15;;
15194;SDS011;7698;42.478;23.756;2023-06-14T09:59:12;5.65;;;5.25;;
15194;SDS011;7698;42.478;23.756;2023-06-14T10:01:42;5.47;;;5.07;;
15194;SDS011;7698;42.478;23.756;2023-06-14T10:04:10;4.50;;;4.20;;
15194;SDS011;7698;42.478;23.756;2023-06-14T10:06:37;5.35;;;4.97;;
15194;SDS011;7698;42.478;23.756;2023-06-14T10:09:08;6.20;;;5.72;;
15194;SDS011;7698;42.478;23.756;2023-06-14T10:11:36;5.57;;;5.13;;
15194;SDS011;7698;42.478;23.756;2023-06-14T10:14:10;6.28;;;5.88;;
15194;SDS011;7698;42.478;23.756;2023-06-14T10:16:39;6.28;;;5.68;;
15194;SDS011;7698;42.478;23.756;2023-06-14T10:22:01;5.35;;;5.05;;
15194;SDS011;7698;42.478;23.756;2023-06-14T10:24:32;4.93;;;4.63;;
15194;SDS011;7698;42.478;23.756;2023-06-14T10:27:05;5.47;;;5.07;;
15194;SDS011;7698;42.478;23.756;2023-06-14T10:29:36;5.32;;;4.97;;
15194;SDS011;7698;42.478;23.756;2023-06-14T10:32:31;5.45;;;5.05;;
15194;SDS011;7698;42.478;23.756;2023-06-14T10:34:59;5.68;;;5.28;;
15194;SDS011;7698;42.478;23.756;2023-06-14T10:37:27;5.95;;;5.45;;
15194;SDS011;7698;42.478;23.756;2023-06-14T10:39:54;5.47;;;4.97;;
15194;SDS011;7698;42.478;23.756;2023-06-14T10:42:22;5.57;;;5.22;;
15194;SDS011;7698;42.478;23.756;2023-06-14T10:44:56;6.00;;;5.60;;
15194;SDS011;7698;42.478;23.756;2023-06-14T10:47:25;5.82;;;5.32;;
15194;SDS011;7698;42.478;23.756;2023-06-14T10:49:54;5.47;;;5.07;;
15194;SDS011;7698;42.478;23.756;2023-06-14T10:52:24;6.13;;;5.57;;
15194;SDS011;7698;42.478;23.756;2023-06-14T10:55:06;4.78;;;4.47;;
15194;SDS011;7698;42.478;23.756;2023-06-14T10:57:36;5.35;;;4.95;;
15194;SDS011;7698;42.478;23.756;2023-06-14T11:00:07;5.95;;;5.55;;
15194;SDS011;7698;42.478;23.756;2023-06-14T11:05:58;5.97;;;5.53;;
15194;SDS011;7698;42.478;23.756;2023-06-14T11:11:31;5.13;;;4.72;;
15194;SDS011;7698;42.478;23.756;2023-06-14T11:13:59;5.18;;;4.82;;
15194;SDS011;7698;42.478;23.756;2023-06-14T11:16:28;5.57;;;5.18;;
15194;SDS011;7698;42.478;23.756;2023-06-14T11:18:57;5.28;;;4.82;;
15194;SDS011;7698;42.478;23.756;2023-06-14T11:21:24;5.40;;;5.00;;
15194;SDS011;7698;42.478;23.756;2023-06-14T11:23:56;5.85;;;5.25;;
15194;SDS011;7698;42.478;23.756;2023-06-14T11:26:26;6.72;;;6.13;;
15194;SDS011;7698;42.478;23.756;2023-06-14T11:28:57;5.97;;;5.57;;
15194;SDS011;7698;42.478;23.756;2023-06-14T11:31:25;5.90;;;5.38;;
15194;SDS011;7698;42.478;23.756;2023-06-14T11:33:54;6.45;;;5.95;;
15194;SDS011;7698;42.478;23.756;2023-06-14T11:36:22;6.47;;;6.03;;
15194;SDS011;7698;42.478;23.756;2023-06-14T11:38:49;7.20;;;6.43;;
15194;SDS011;7698;42.478;23.756;2023-06-14T11:41:16;6.60;;;6.00;;
15194;SDS011;7698;42.478;23.756;2023-06-14T11:43:43;6.68;;;6.22;;
15194;SDS011;7698;42.478;23.756;2023-06-14T11:46:13;8.15;;;6.45;;
15194;SDS011;7698;42.478;23.756;2023-06-14T11:48:44;6.68;;;6.18;;
15194;SDS011;7698;42.478;23.756;2023-06-14T11:51:11;7.07;;;6.57;;
15194;SDS011;7698;42.478;23.756;2023-06-14T11:53:38;6.47;;;5.97;;
15194;SDS011;7698;42.478;23.756;2023-06-14T11:56:05;6.53;;;6.03;;
15194;SDS011;7698;42.478;23.756;2023-06-14T11:58:33;7.72;;;7.03;;
15194;SDS011;7698;42.478;23.756;2023-06-14T12:01:00;6.10;;;5.60;;
15194;SDS011;7698;42.478;23.756;2023-06-14T12:03:29;6.40;;;6.00;;
15194;SDS011;7698;42.478;23.756;2023-06-14T12:06:05;6.20;;;5.80;;
15194;SDS011;7698;42.478;23.756;2023-06-14T12:08:34;6.35;;;5.93;;
15194;SDS011;7698;42.478;23.756;2023-06-14T12:11:10;6.30;;;5.80;;
15194;SDS011;7698;42.478;23.756;2023-06-14T12:13:38;5.70;;;5.30;;
15194;SDS011;7698;42.478;23.756;2023-06-14T12:16:06;6.05;;;5.65;;
15194;SDS011;7698;42.478;23.756;2023-06-14T12:18:34;5.68;;;5.28;;
15194;SDS011;7698;42.478;23.756;2023-06-14T12:21:04;6.55;;;6.05;;
15194;SDS011;7698;42.478;23.756;2023-06-14T12:23:39;6.20;;;5.72;;
15194;SDS011;7698;42.478;23.756;2023-06-14T12:26:08;6.20;;;5.70;;
15194;SDS011;7698;42.478;23.756;2023-06-14T12:28:35;6.43;;;5.72;;
15194;SDS011;7698;42.478;23.756;2023-06-14T12:31:02;5.65;;;5.28;;
15194;SDS011;7698;42.478;23.756;2023-06-14T12:33:29;6.20;;;5.70;;
15194;SDS011;7698;42.478;23.756;2023-06-14T12:35:56;5.63;;;5.20;;
15194;SDS011;7698;42.478;23.756;2023-06-14T12:38:25;5.78;;;5.28;;
15194;SDS011;7698;42.478;23.756;2023-06-14T12:40:52;5.57;;;5.18;;
15194;SDS011;7698;42.478;23.756;2023-06-14T12:43:20;4.80;;;4.50;;
15194;SDS011;7698;42.478;23.756;2023-06-14T12:45:46;4.90;;;4.50;;
15194;SDS011;7698;42.478;23.756;2023-06-14T12:48:13;5.07;;;4.70;;
15194;SDS011;7698;42.478;23.756;2023-06-14T12:50:40;5.15;;;4.85;;
15194;SDS011;7698;42.478;23.756;2023-06-14T12:53:07;5.30;;;4.90;;
15194;SDS011;7698;42.478;23.756;2023-06-14T12:55:36;5.72;;;5.32;;
15194;SDS011;7698;42.478;23.756;2023-06-14T12:58:03;6.35;;;5.95;;
15194;SDS011;7698;42.478;23.756;2023-06-14T13:00:30;5.88;;;5.47;;
15194;SDS011;7698;42.478;23.756;2023-06-14T13:02:58;5.60;;;5.20;;
15194;SDS011;7698;42.478;23.756;2023-06-14T13:05:25;5.22;;;4.82;;
15194;SDS011;7698;42.478;23.756;2023-06-14T13:07:52;6.40;;;5.60;;
15194;SDS011;7698;42.478;23.756;2023-06-14T13:10:18;5.82;;;5.43;;
15194;SDS011;7698;42.478;23.756;2023-06-14T13:12:47;6.53;;;6.07;;
15194;SDS011;7698;42.478;23.756;2023-06-14T13:15:14;6.25;;;5.85;;
15194;SDS011;7698;42.478;23.756;2023-06-14T13:17:41;6.70;;;6.25;;
15194;SDS011;7698;42.478;23.756;2023-06-14T13:20:09;6.95;;;6.45;;
15194;SDS011;7698;42.478;23.756;2023-06-14T13:22:36;7.35;;;6.80;;
15194;SDS011;7698;42.478;23.756;2023-06-14T13:25:05;7.13;;;6.53;;
15194;SDS011;7698;42.478;23.756;2023-06-14T13:27:32;6.10;;;5.70;;
15194;SDS011;7698;42.478;23.756;2023-06-14T13:30:01;5.97;;;5.47;;
15194;SDS011;7698;42.478;23.756;2023-06-14T13:32:28;6.55;;;6.15;;
15194;SDS011;7698;42.478;23.756;2023-06-14T13:34:55;7.38;;;6.78;;
15194;SDS011;7698;42.478;23.756;2023-06-14T13:37:22;6.72;;;6.32;;
15194;SDS011;7698;42.478;23.756;2023-06-14T13:39:49;8.43;;;7.65;;
15194;SDS011;7698;42.478;23.756;2023-06-14T13:42:16;7.57;;;6.90;;
15194;SDS011;7698;42.478;23.756;2023-06-14T13:44:43;6.60;;;6.15;;
15194;SDS011;7698;42.478;23.756;2023-06-14T13:47:11;6.72;;;6.28;;
15194;SDS011;7698;42.478;23.756;2023-06-14T13:49:38;7.25;;;6.68;;
15194;SDS011;7698;42.478;23.756;2023-06-14T13:52:06;7.57;;;7.05;;
15194;SDS011;7698;42.478;23.756;2023-06-14T13:54:33;7.95;;;7.45;;
15194;SDS011;7698;42.478;23.756;2023-06-14T13:57:01;8.00;;;7.50;;
15194;SDS011;7698;42.478;23.756;2023-06-14T13:59:28;8.73;;;8.02;;
15194;SDS011;7698;42.478;23.756;2023-06-14T14:01:55;7.53;;;6.93;;
15194;SDS011;7698;42.478;23.756;2023-06-14T14:04:23;7.70;;;7.20;;
15194;SDS011;7698;42.478;23.756;2023-06-14T14:06:51;7.13;;;6.63;;
15194;SDS011;7698;42.478;23.756;2023-06-14T14:09:18;7.78;;;7.28;;
15194;SDS011;7698;42.478;23.756;2023-06-14T14:11:45;8.18;;;7.57;;
15194;SDS011;7698;42.478;23.756;2023-06-14T14:14:13;8.40;;;7.90;;
15194;SDS011;7698;42.478;23.756;2023-06-14T14:16:40;8.60;;;8.00;;
15194;SDS011;7698;42.478;23.756;2023-06-14T14:19:07;8.07;;;7.57;;
15194;SDS011;7698;42.478;23.756;2023-06-14T14:21:36;8.48;;;7.88;;
15194;SDS011;7698;42.478;23.756;2023-06-14T14:24:03;9.18;;;8.50;;
15194;SDS011;7698;42.478;23.756;2023-06-14T14:26:31;8.55;;;7.90;;
15194;SDS011;7698;42.478;23.756;2023-06-14T14:28:58;8.90;;;8.30;;
15194;SDS011;7698;42.478;23.756;2023-06-14T14:31:24;7.65;;;7.05;;
15194;SDS011;7698;42.478;23.756;2023-06-14T14:33:51;6.95;;;6.45;;
15194;SDS011;7698;42.478;23.756;2023-06-14T14:36:18;7.63;;;7.07;;
15194;SDS011;7698;42.478;23.756;2023-06-14T14:38:47;8.15;;;7.65;;
15194;SDS011;7698;42.478;23.756;2023-06-14T14:41:16;7.38;;;6.68;;
15194;SDS011;7698;42.478;23.756;2023-06-14T14:43:43;8.10;;;7.60;;
15194;SDS011;7698;42.478;23.756;2023-06-14T14:46:11;7.65;;;7.15;;
15194;SDS011;7698;42.478;23.756;2023-06-14T14:48:38;8.00;;;7.40;;
15194;SDS011;7698;42.478;23.756;2023-06-14T14:51:05;7.47;;;6.97;;
15194;SDS011;7698;42.478;23.756;2023-06-14T14:53:32;8.13;;;7.53;;